Time;durP1;ratioP1;P1;durP2;ratioP2;P2;SDS_P1;SDS_P2;PMS_P1;PMS_P2;Temp;Humidity;BMP_temperature;BMP_pressure;BME280_temperature;BME280_humidity;BME280_pressure;Samples;Min_cycle;Max_cycle;Signal;HPM_P1;HPM_P2
2021/04/03 00:01:00;;;;;;;11.98;2.10;;;6.20;99.90;;;;;;5024381;28;20128;-85
2021/04/03 00:03:29;;;;;;;12.60;2.55;;;6.20;99.90;;;;;;5025627;28;20139;-85
2021/04/03 00:05:57;;;;;;;14.48;3.28;;;6.20;99.90;;;;;;5024393;28;20053;-85
2021/04/03 00:08:24;;;;;;;26.02;3.78;;;6.20;99.90;;;;;;5023983;28;20058;-84
2021/04/03 00:10:56;;;;;;;19.77;2.75;;;6.30;99.90;;;;;;5041845;28;20493;-85
2021/04/03 00:13:25;;;;;;;16.23;2.25;;;6.30;99.90;;;;;;5024014;28;20112;-85
2021/04/03 00:15:51;;;;;;;23.38;3.65;;;6.30;99.90;;;;;;5030208;28;20153;-85
2021/04/03 00:18:17;;;;;;;24.33;2.42;;;6.30;99.90;;;;;;5023803;28;20052;-85
2021/04/03 00:20:48;;;;;;;18.95;4.20;;;6.30;99.90;;;;;;5029041;28;20045;-85
2021/04/03 00:23:17;;;;;;;15.25;2.72;;;6.30;99.90;;;;;;5041221;28;20470;-85
2021/04/03 00:25:44;;;;;;;20.02;2.67;;;6.30;99.90;;;;;;5029563;28;20073;-85
2021/04/03 00:28:10;;;;;;;22.80;3.67;;;6.30;99.90;;;;;;5047287;28;20127;-85
2021/04/03 00:30:36;;;;;;;18.25;2.58;;;6.40;99.90;;;;;;5028161;28;20049;-85
2021/04/03 00:33:06;;;;;;;16.83;2.05;;;6.40;99.90;;;;;;5044488;28;20052;-84
2021/04/03 00:35:39;;;;;;;21.10;3.22;;;6.40;99.90;;;;;;5026958;28;20049;-84
2021/04/03 00:38:07;;;;;;;10.82;2.55;;;6.40;99.90;;;;;;5028689;28;20104;-85
2021/04/03 00:40:43;;;;;;;23.75;2.92;;;6.40;99.90;;;;;;5031287;28;20144;-85
2021/04/03 00:43:13;;;;;;;17.33;2.65;;;6.40;99.90;;;;;;5043507;28;20055;-84
2021/04/03 00:45:40;;;;;;;16.10;2.95;;;6.50;99.90;;;;;;5023202;28;20055;-85
2021/04/03 00:48:06;;;;;;;11.55;2.30;;;6.50;99.90;;;;;;5043922;28;20053;-85
2021/04/03 00:50:35;;;;;;;18.15;4.03;;;6.50;99.90;;;;;;5027563;28;20053;-85
2021/04/03 00:53:06;;;;;;;14.75;2.05;;;6.50;99.90;;;;;;5033249;28;20105;-85
2021/04/03 00:55:33;;;;;;;17.42;1.98;;;6.50;99.90;;;;;;5025566;28;20056;-85
2021/04/03 00:58:00;;;;;;;19.33;2.58;;;6.50;99.90;;;;;;5027411;28;20496;-85
2021/04/03 01:00:26;;;;;;;24.85;3.80;;;6.50;99.90;;;;;;5025646;28;20124;-84
2021/04/03 01:02:53;;;;;;;18.00;2.67;;;6.50;99.90;;;;;;5045224;28;20052;-85
2021/04/03 01:05:23;;;;;;;15.15;2.08;;;6.50;99.90;;;;;;5033901;28;20044;-85
2021/04/03 01:07:50;;;;;;;13.52;2.15;;;6.50;99.90;;;;;;5028944;28;20528;-85
2021/04/03 01:10:21;;;;;;;16.27;2.92;;;6.50;99.90;;;;;;5026101;28;20220;-85
2021/04/03 01:13:21;;;;;;;18.38;3.67;;;6.50;99.90;;;;;;5027831;28;20407;-85
2021/04/03 01:16:06;;;;;;;17.02;2.20;;;6.50;99.90;;;;;;5023901;28;20080;-85
2021/04/03 01:18:50;;;;;;;23.45;3.22;;;6.50;99.90;;;;;;5021699;28;20070;-85
2021/04/03 01:21:38;;;;;;;15.77;3.08;;;6.50;99.90;;;;;;5043166;28;20096;-85
2021/04/03 01:24:22;;;;;;;20.30;3.47;;;6.50;99.90;;;;;;5026794;28;20045;-85
2021/04/03 01:27:09;;;;;;;29.25;3.75;;;6.50;99.90;;;;;;5029146;28;20257;-85
2021/04/03 01:29:54;;;;;;;14.68;2.92;;;6.40;99.90;;;;;;5044632;28;20049;-84
2021/04/03 01:32:33;;;;;;;18.05;3.42;;;6.40;99.90;;;;;;5023776;28;20057;-84
2021/04/03 01:35:01;;;;;;;21.02;2.78;;;6.40;99.90;;;;;;5039515;28;20556;-84
2021/04/03 01:37:30;;;;;;;22.20;2.72;;;6.40;99.90;;;;;;5024729;28;20104;-85
2021/04/03 01:39:58;;;;;;;16.75;2.40;;;6.40;99.90;;;;;;5025190;28;20036;-84
2021/04/03 01:42:32;;;;;;;22.77;4.47;;;6.40;99.90;;;;;;5023957;28;20133;-85
2021/04/03 01:45:00;;;;;;;19.60;2.50;;;6.40;99.90;;;;;;5023986;28;20041;-85
2021/04/03 01:47:30;;;;;;;26.80;4.18;;;6.40;99.90;;;;;;5022968;28;20132;-85
2021/04/03 01:49:57;;;;;;;20.88;2.92;;;6.40;99.90;;;;;;5024854;28;20053;-85
2021/04/03 01:52:31;;;;;;;21.17;5.22;;;6.40;99.90;;;;;;5039708;28;20055;-85
2021/04/03 01:55:03;;;;;;;26.02;6.07;;;6.40;99.90;;;;;;5025959;28;20048;-85
2021/04/03 01:57:31;;;;;;;19.30;3.35;;;6.30;99.90;;;;;;5025806;28;20086;-85
2021/04/03 01:59:58;;;;;;;23.70;3.72;;;6.30;99.90;;;;;;5043600;28;20047;-85
2021/04/03 02:02:25;;;;;;;25.52;3.53;;;6.20;99.90;;;;;;5024188;28;20045;-85
2021/04/03 02:04:52;;;;;;;32.25;4.85;;;6.20;99.90;;;;;;5024428;28;20046;-85
2021/04/03 02:07:22;;;;;;;24.55;3.85;;;6.10;99.90;;;;;;5026098;28;20057;-84
2021/04/03 02:09:51;;;;;;;22.60;4.28;;;6.10;99.90;;;;;;5043367;28;20052;-84
2021/04/03 02:12:19;;;;;;;27.27;4.55;;;6.00;99.90;;;;;;5041510;28;20084;-84
2021/04/03 02:14:50;;;;;;;33.92;5.03;;;5.90;99.90;;;;;;5027106;28;20048;-85
2021/04/03 02:17:18;;;;;;;31.85;4.40;;;5.90;99.90;;;;;;5026080;28;20041;-85
2021/04/03 02:19:44;;;;;;;29.65;3.63;;;5.80;99.90;;;;;;5029579;28;20132;-85
2021/04/03 02:22:14;;;;;;;31.85;4.78;;;5.70;99.90;;;;;;5027405;28;20459;-85
2021/04/03 02:24:43;;;;;;;26.98;4.80;;;5.70;99.90;;;;;;5028459;28;20100;-85
2021/04/03 02:27:10;;;;;;;27.65;4.68;;;5.70;99.90;;;;;;5027321;28;20029;-85
2021/04/03 02:29:37;;;;;;;26.90;4.80;;;5.60;99.90;;;;;;5027754;28;20106;-85
2021/04/03 02:32:05;;;;;;;36.97;4.38;;;5.60;99.90;;;;;;5042175;28;20571;-85
2021/04/03 02:34:32;;;;;;;25.83;3.80;;;5.50;99.90;;;;;;5028987;28;20105;-84
2021/04/03 02:37:18;;;;;;;34.00;4.68;;;5.50;99.90;;;;;;5040413;28;20500;-85
2021/04/03 02:39:44;;;;;;;24.13;3.63;;;5.40;99.90;;;;;;5038982;28;20473;-87
2021/04/03 02:42:18;;;;;;;33.65;3.65;;;5.40;99.90;;;;;;5017934;28;20045;-86
2021/04/03 02:44:54;;;;;;;32.60;5.38;;;5.40;99.90;;;;;;5005353;28;20179;-83
2021/04/03 02:47:29;;;;;;;36.00;5.32;;;5.30;99.90;;;;;;5017168;28;20037;-85
2021/04/03 02:50:15;;;;;;;33.85;4.72;;;5.30;99.90;;;;;;5016124;28;20029;-85
2021/04/03 02:52:48;;;;;;;42.90;4.82;;;5.30;99.90;;;;;;4984998;28;20424;-86
2021/04/03 02:55:19;;;;;;;35.25;5.32;;;5.20;99.90;;;;;;5004782;28;20496;-85
2021/04/03 02:57:47;;;;;;;26.10;3.35;;;5.20;99.90;;;;;;5029216;28;20064;-84
2021/04/03 03:00:15;;;;;;;33.28;5.15;;;5.10;99.90;;;;;;5025567;28;20044;-84
2021/04/03 03:02:42;;;;;;;23.75;4.10;;;5.10;99.90;;;;;;5026431;28;20054;-84
2021/04/03 03:05:09;;;;;;;42.55;6.15;;;5.10;99.90;;;;;;5025447;28;20055;-84
2021/04/03 03:07:40;;;;;;;33.35;5.18;;;5.00;99.90;;;;;;5023269;28;20045;-84
2021/04/03 03:10:07;;;;;;;54.15;6.80;;;5.00;99.90;;;;;;5020368;28;20618;-84
2021/04/03 03:12:34;;;;;;;32.47;4.50;;;5.00;99.90;;;;;;5024790;28;20045;-84
2021/04/03 03:15:03;;;;;;;28.80;3.45;;;4.90;99.90;;;;;;5022341;28;20047;-84
2021/04/03 03:17:30;;;;;;;31.48;3.85;;;4.90;99.90;;;;;;5043074;28;20527;-84
2021/04/03 03:20:02;;;;;;;31.08;5.65;;;4.90;99.90;;;;;;5025878;28;20053;-84
2021/04/03 03:22:30;;;;;;;34.38;5.82;;;4.90;99.90;;;;;;5023813;28;20056;-84
2021/04/03 03:24:56;;;;;;;41.20;5.28;;;4.90;99.90;;;;;;5032250;28;20105;-84
2021/04/03 03:27:25;;;;;;;30.17;4.75;;;4.80;99.90;;;;;;5044205;28;20531;-84
2021/04/03 03:29:52;;;;;;;30.55;4.53;;;4.80;99.90;;;;;;5030503;28;20116;-84
2021/04/03 03:32:18;;;;;;;30.52;4.00;;;4.80;99.90;;;;;;5041315;28;20055;-84
2021/04/03 03:34:45;;;;;;;32.33;5.70;;;4.80;99.90;;;;;;5040176;28;20071;-84
2021/04/03 03:37:11;;;;;;;35.05;5.15;;;4.70;99.90;;;;;;5025479;28;20049;-84
2021/04/03 03:39:39;;;;;;;31.67;4.72;;;4.70;99.90;;;;;;5024773;28;20049;-84
2021/04/03 03:42:07;;;;;;;32.90;4.45;;;4.70;99.90;;;;;;5025565;28;20128;-84
2021/04/03 03:44:33;;;;;;;29.98;4.55;;;4.70;99.90;;;;;;5024121;28;20053;-84
2021/04/03 03:46:59;;;;;;;38.38;5.22;;;4.70;99.90;;;;;;5026651;28;20060;-84
2021/04/03 03:49:28;;;;;;;36.90;5.05;;;4.60;99.90;;;;;;5026699;28;20530;-84
2021/04/03 03:51:54;;;;;;;39.13;5.93;;;4.70;99.90;;;;;;5042392;28;20107;-84
2021/04/03 03:54:20;;;;;;;32.20;5.18;;;4.60;99.90;;;;;;5027951;28;20674;-84
2021/04/03 03:56:47;;;;;;;17.05;5.20;;;4.60;99.90;;;;;;5044254;28;20064;-84
2021/04/03 03:59:14;;;;;;;36.90;6.00;;;4.60;99.90;;;;;;5042107;28;20443;-84
2021/04/03 04:01:40;;;;;;;38.13;4.82;;;4.60;99.90;;;;;;5029034;28;20563;-84
2021/04/03 04:04:06;;;;;;;39.15;6.05;;;4.60;99.90;;;;;;5043555;28;20049;-84
2021/04/03 04:06:33;;;;;;;36.00;5.28;;;4.60;99.90;;;;;;5028563;28;20076;-84
2021/04/03 04:09:02;;;;;;;32.10;6.40;;;4.60;99.90;;;;;;5028034;28;20053;-84
2021/04/03 04:11:29;;;;;;;36.22;5.50;;;4.50;99.90;;;;;;5029712;28;20124;-84
2021/04/03 04:13:55;;;;;;;32.17;4.53;;;4.50;99.90;;;;;;5027317;28;20049;-85
2021/04/03 04:16:21;;;;;;;33.80;4.93;;;4.50;99.90;;;;;;5028699;28;20079;-84
2021/04/03 04:18:48;;;;;;;27.90;4.78;;;4.50;99.90;;;;;;5043580;28;20488;-84
2021/04/03 04:21:14;;;;;;;28.83;4.60;;;4.50;99.90;;;;;;5031112;28;20051;-84
2021/04/03 04:23:40;;;;;;;35.22;5.00;;;4.50;99.90;;;;;;5029577;28;20108;-84
2021/04/03 04:26:07;;;;;;;34.83;6.07;;;4.50;99.90;;;;;;5044831;28;20041;-84
2021/04/03 04:28:34;;;;;;;26.95;5.63;;;4.50;99.90;;;;;;5030924;28;20049;-84
2021/04/03 04:31:01;;;;;;;45.78;5.03;;;4.40;99.90;;;;;;5029108;28;20065;-85
2021/04/03 04:33:27;;;;;;;27.88;4.63;;;4.40;99.90;;;;;;5046855;28;20072;-85
2021/04/03 04:35:55;;;;;;;42.38;5.93;;;4.40;99.90;;;;;;5028802;28;20055;-84
2021/04/03 04:38:22;;;;;;;39.53;5.28;;;4.40;99.90;;;;;;5027398;28;20055;-84
2021/04/03 04:40:49;;;;;;;31.55;4.57;;;4.40;99.90;;;;;;5026184;28;20055;-84
2021/04/03 04:43:19;;;;;;;41.13;5.10;;;4.40;99.90;;;;;;5032918;28;20060;-84
2021/04/03 04:45:45;;;;;;;29.42;5.72;;;4.40;99.90;;;;;;5044692;28;20527;-85
2021/04/03 04:48:12;;;;;;;36.33;4.78;;;4.40;99.90;;;;;;5030524;28;20057;-84
2021/04/03 04:50:38;;;;;;;36.30;6.78;;;4.40;99.90;;;;;;5026404;28;20053;-84
2021/04/03 04:53:06;;;;;;;46.22;5.25;;;4.40;99.90;;;;;;5027545;28;20123;-84
2021/04/03 04:55:34;;;;;;;42.03;5.30;;;4.40;99.90;;;;;;5027949;28;20041;-84
2021/04/03 04:58:00;;;;;;;32.80;5.55;;;4.30;99.90;;;;;;5023337;28;20065;-84
2021/04/03 05:00:27;;;;;;;31.80;4.88;;;4.30;99.90;;;;;;5026148;28;20057;-84
2021/04/03 05:02:53;;;;;;;31.67;5.13;;;4.30;99.90;;;;;;5042551;28;20132;-84
2021/04/03 05:05:19;;;;;;;41.38;4.97;;;4.30;99.90;;;;;;5030560;28;20076;-84
2021/04/03 05:07:46;;;;;;;30.17;5.63;;;4.30;99.90;;;;;;5029935;28;20045;-85
2021/04/03 05:10:13;;;;;;;26.38;4.43;;;4.30;99.90;;;;;;5028976;28;20049;-85
2021/04/03 05:12:42;;;;;;;35.33;5.88;;;4.30;99.90;;;;;;5027009;28;20461;-84
2021/04/03 05:15:08;;;;;;;49.40;6.10;;;4.30;99.90;;;;;;5035672;28;20125;-84
2021/04/03 05:17:34;;;;;;;24.80;5.03;;;4.30;99.90;;;;;;5042264;28;20523;-85
2021/04/03 05:20:01;;;;;;;36.08;4.90;;;4.30;99.90;;;;;;5029463;28;20069;-84
2021/04/03 05:22:27;;;;;;;42.92;5.68;;;4.40;99.90;;;;;;5042966;28;20044;-85
2021/04/03 05:24:53;;;;;;;41.08;6.07;;;4.40;99.90;;;;;;5031000;28;20040;-85
2021/04/03 05:27:19;;;;;;;39.70;5.90;;;4.40;99.90;;;;;;5015100;28;20049;-86
2021/04/03 05:29:46;;;;;;;38.97;6.05;;;4.40;99.90;;;;;;5029739;28;20108;-86
2021/04/03 05:32:13;;;;;;;30.35;4.32;;;4.40;99.90;;;;;;5035113;28;20104;-84
2021/04/03 05:34:39;;;;;;;25.40;6.15;;;4.40;99.90;;;;;;5025778;28;20052;-83
2021/04/03 05:37:21;;;;;;;30.55;5.00;;;4.40;99.90;;;;;;5026370;28;20083;-84
2021/04/03 05:39:47;;;;;;;25.90;3.95;;;4.50;99.90;;;;;;5043854;28;20108;-84
2021/04/03 05:42:18;;;;;;;34.63;5.88;;;4.50;99.90;;;;;;5034664;28;20065;-84
2021/04/03 05:44:46;;;;;;;26.70;4.43;;;4.50;99.90;;;;;;5008656;28;20055;-84
2021/04/03 05:47:13;;;;;;;30.65;4.68;;;4.50;99.90;;;;;;5028697;28;20075;-84
2021/04/03 05:49:41;;;;;;;46.03;6.38;;;4.60;99.90;;;;;;5018569;28;20049;-84
2021/04/03 05:52:08;;;;;;;34.13;4.40;;;4.60;99.90;;;;;;5044191;28;20061;-84
2021/04/03 05:54:39;;;;;;;38.63;5.63;;;4.60;99.90;;;;;;5026040;28;20060;-84
2021/04/03 05:57:06;;;;;;;37.15;5.45;;;4.70;99.90;;;;;;5026281;28;20059;-85
2021/04/03 05:59:34;;;;;;;26.67;4.28;;;4.70;99.90;;;;;;5024457;28;20059;-85
2021/04/03 06:02:01;;;;;;;34.13;5.53;;;4.80;99.90;;;;;;5021420;28;20051;-83
2021/04/03 06:04:27;;;;;;;31.73;5.38;;;4.80;99.90;;;;;;5036775;28;20512;-82
2021/04/03 06:06:55;;;;;;;40.78;4.63;;;4.90;99.90;;;;;;5023784;28;20053;-83
2021/04/03 06:09:21;;;;;;;32.53;6.97;;;5.00;99.90;;;;;;5006635;28;20078;-84
2021/04/03 06:11:50;;;;;;;35.88;4.55;;;5.10;99.90;;;;;;5040503;28;20057;-84
2021/04/03 06:14:17;;;;;;;36.97;5.45;;;5.20;99.90;;;;;;5021454;28;20115;-82
2021/04/03 06:16:48;;;;;;;33.40;5.28;;;5.30;99.90;;;;;;5021638;28;20144;-83
2021/04/03 06:19:16;;;;;;;33.10;4.50;;;5.40;99.90;;;;;;5038009;28;20156;-83
2021/04/03 06:21:45;;;;;;;25.73;4.53;;;5.60;99.90;;;;;;5022774;28;20045;-84
2021/04/03 06:24:16;;;;;;;39.88;5.95;;;5.70;99.90;;;;;;5022493;28;20056;-84
2021/04/03 06:26:55;;;;;;;26.33;5.95;;;5.80;99.90;;;;;;5020305;28;20045;-85
2021/04/03 06:29:39;;;;;;;23.05;4.57;;;5.90;99.90;;;;;;5021702;28;20139;-84
2021/04/03 06:32:28;;;;;;;;;;;6.10;99.90;;;;;;5039532;28;20127;-82
2021/04/03 06:34:54;;;;;;;37.50;4.75;;;6.20;99.90;;;;;;5032065;28;19921;-85
2021/04/03 06:37:32;;;;;;;34.45;4.93;;;6.30;99.90;;;;;;5026032;28;20050;-84
2021/04/03 06:40:11;;;;;;;34.63;4.95;;;6.40;99.90;;;;;;5032477;28;20075;-84
2021/04/03 06:42:40;;;;;;;42.05;5.47;;;6.50;99.90;;;;;;5017609;28;20857;-85
2021/04/03 06:45:19;;;;;;;34.47;4.72;;;6.60;99.90;;;;;;5018351;28;20085;-83
2021/04/03 06:47:48;;;;;;;30.33;4.97;;;6.70;99.90;;;;;;5030925;28;20068;-82
2021/04/03 06:50:15;;;;;;;23.20;3.67;;;6.80;99.90;;;;;;5020654;28;20133;-84
2021/04/03 06:52:42;;;;;;;27.98;4.53;;;6.80;99.90;;;;;;5021052;28;20115;-83
2021/04/03 06:55:11;;;;;;;35.83;4.78;;;6.90;99.90;;;;;;5022758;28;20046;-83
2021/04/03 06:57:42;;;;;;;32.13;5.18;;;6.90;99.90;;;;;;5020949;28;20045;-81
2021/04/03 07:00:09;;;;;;;31.90;5.85;;;6.90;99.90;;;;;;5018423;28;20510;-83
2021/04/03 07:03:00;;;;;;;31.88;4.50;;;7.00;99.90;;;;;;5022704;28;20507;-81
2021/04/03 07:05:36;;;;;;;30.08;5.07;;;7.00;99.90;;;;;;5012710;28;20048;-81
2021/04/03 07:08:05;;;;;;;29.13;4.70;;;7.10;99.90;;;;;;5027270;28;20045;-80
2021/04/03 07:10:33;;;;;;;25.05;3.97;;;7.10;99.90;;;;;;5024568;28;20052;-81
2021/04/03 07:13:00;;;;;;;41.00;7.45;;;7.20;99.90;;;;;;5043580;28;20054;-85
2021/04/03 07:15:27;;;;;;;26.98;4.30;;;7.30;99.90;;;;;;5011088;28;20124;-82
2021/04/03 07:17:54;;;;;;;21.90;3.53;;;7.30;99.90;;;;;;5037312;28;20076;-84
2021/04/03 07:20:27;;;;;;;28.67;5.80;;;7.40;99.90;;;;;;5023592;28;20055;-84
2021/04/03 07:23:03;;;;;;;33.97;5.50;;;7.40;99.90;;;;;;5037711;28;20042;-84
2021/04/03 07:25:35;;;;;;;25.83;4.25;;;7.50;99.90;;;;;;5026661;28;20041;-84
2021/04/03 07:28:03;;;;;;;30.33;5.20;;;7.50;99.90;;;;;;5018472;28;20508;-81
2021/04/03 07:30:36;;;;;;;26.50;4.22;;;7.50;99.90;;;;;;5030779;28;20093;-80
2021/04/03 07:33:22;;;;;;;29.15;4.72;;;7.50;99.90;;;;;;5022722;28;20109;-82
2021/04/03 07:35:49;;;;;;;39.20;6.60;;;7.60;99.90;;;;;;5025286;28;20052;-82
2021/04/03 07:38:27;;;;;;;19.50;5.43;;;7.60;99.90;;;;;;5024487;28;20120;-80
2021/04/03 07:40:55;;;;;;;27.02;4.97;;;7.70;99.90;;;;;;5041339;28;20053;-80
2021/04/03 07:43:40;;;;;;;31.95;4.38;;;7.70;99.90;;;;;;5023048;28;20037;-80
2021/04/03 07:46:32;;;;;;;28.48;5.28;;;7.80;99.90;;;;;;5020513;28;20053;-81
2021/04/03 07:49:00;;;;;;;24.25;4.43;;;7.80;99.90;;;;;;5008634;28;20061;-83
2021/04/03 07:51:29;;;;;;;21.30;4.22;;;7.90;99.90;;;;;;5024456;28;20049;-81
2021/04/03 07:54:00;;;;;;;38.65;6.30;;;7.90;99.90;;;;;;5013085;28;20055;-81
2021/04/03 07:56:49;;;;;;;19.52;3.80;;;7.90;99.90;;;;;;5010112;28;20075;-80
2021/04/03 07:59:16;;;;;;;22.25;4.63;;;8.00;99.90;;;;;;5018435;28;20128;-82
2021/04/03 08:01:51;;;;;;;26.60;3.78;;;8.00;99.90;;;;;;5039370;28;20064;-81
2021/04/03 08:04:25;;;;;;;30.17;3.67;;;8.00;99.90;;;;;;5021037;28;20038;-80
2021/04/03 08:06:51;;;;;;;31.88;4.40;;;8.10;99.90;;;;;;5018569;28;20125;-81
2021/04/03 08:09:18;;;;;;;39.05;4.38;;;8.10;99.90;;;;;;5014878;28;20065;-82
2021/04/03 08:11:46;;;;;;;33.65;4.60;;;8.20;99.90;;;;;;5015022;28;20049;-81
2021/04/03 08:14:13;;;;;;;20.23;4.15;;;8.40;99.90;;;;;;5029814;28;20075;-82
2021/04/03 08:16:41;;;;;;;23.73;4.32;;;8.50;99.90;;;;;;4986307;28;20463;-80
2021/04/03 08:19:09;;;;;;;25.63;4.20;;;8.50;99.90;;;;;;5016660;28;20076;-79
2021/04/03 08:21:42;;;;;;;27.52;3.97;;;8.60;99.90;;;;;;5015220;28;20056;-82
2021/04/03 08:24:09;;;;;;;29.33;3.95;;;8.60;99.90;;;;;;5011810;28;20041;-82
2021/04/03 08:26:38;;;;;;;20.30;3.85;;;8.60;99.90;;;;;;5017580;28;20071;-82
2021/04/03 08:29:04;;;;;;;28.25;4.35;;;8.60;99.90;;;;;;5019509;28;20148;-81
2021/04/03 08:31:33;;;;;;;26.90;4.15;;;8.60;99.90;;;;;;5017006;28;20144;-81
2021/04/03 08:34:02;;;;;;;19.80;3.85;;;8.60;99.90;;;;;;5034027;28;20133;-81
2021/04/03 08:36:31;;;;;;;28.88;4.95;;;8.70;99.90;;;;;;5021410;28;20151;-80
2021/04/03 08:39:04;;;;;;;29.70;4.35;;;8.70;99.90;;;;;;5015977;28;20538;-83
2021/04/03 08:41:32;;;;;;;22.63;3.80;;;8.90;99.90;;;;;;5016704;28;20572;-82
2021/04/03 08:43:58;;;;;;;28.52;4.18;;;9.00;99.90;;;;;;5024385;28;20461;-83
2021/04/03 08:46:25;;;;;;;19.33;3.30;;;9.10;99.90;;;;;;5025923;28;20050;-84
2021/04/03 08:48:57;;;;;;;22.23;4.32;;;9.10;99.90;;;;;;5017537;28;20050;-82
2021/04/03 08:51:25;;;;;;;24.95;4.53;;;9.20;99.90;;;;;;5024244;28;20126;-86
2021/04/03 08:53:54;;;;;;;34.30;5.75;;;9.30;99.90;;;;;;5040624;28;20090;-85
2021/04/03 08:56:26;;;;;;;19.13;3.63;;;9.30;99.90;;;;;;5022113;28;20105;-84
2021/04/03 08:58:53;;;;;;;19.73;3.97;;;9.30;99.90;;;;;;5026086;28;20060;-85
2021/04/03 09:01:23;;;;;;;25.35;5.50;;;9.30;99.90;;;;;;5018759;28;20127;-84
2021/04/03 09:03:53;;;;;;;22.15;4.07;;;9.20;99.90;;;;;;5021700;28;20505;-81
2021/04/03 09:06:46;;;;;;;15.90;2.58;;;9.30;99.90;;;;;;5017137;28;20073;-81
2021/04/03 09:09:20;;;;;;;19.77;4.15;;;9.30;99.90;;;;;;5022822;28;20132;-82
2021/04/03 09:11:58;;;;;;;23.42;4.00;;;9.30;99.90;;;;;;5021717;28;20055;-82
2021/04/03 09:14:35;;;;;;;30.70;4.97;;;9.40;99.90;;;;;;5027808;28;20154;-82
2021/04/03 09:17:04;;;;;;;23.45;4.07;;;9.50;99.90;;;;;;5022760;28;20059;-84
2021/04/03 09:19:35;;;;;;;22.27;3.83;;;9.60;99.90;;;;;;5026581;28;20051;-84
2021/04/03 09:22:04;;;;;;;27.40;5.30;;;9.80;99.90;;;;;;5028835;28;20060;-85
2021/04/03 09:24:41;;;;;;;15.77;3.80;;;10.10;99.90;;;;;;5021139;28;20144;-84
2021/04/03 09:27:14;;;;;;;25.15;4.18;;;10.20;99.90;;;;;;5037049;28;20080;-85
2021/04/03 09:29:44;;;;;;;25.25;4.28;;;10.50;99.90;;;;;;5021516;28;20054;-84
2021/04/03 09:32:11;;;;;;;21.17;3.40;;;10.60;99.90;;;;;;5025163;28;20045;-84
2021/04/03 09:34:38;;;;;;;20.75;5.05;;;10.70;99.90;;;;;;5018695;28;20117;-84
2021/04/03 09:37:22;;;;;;;26.30;4.43;;;10.80;99.90;;;;;;5023230;28;20045;-85
2021/04/03 09:39:56;;;;;;;20.13;3.08;;;10.80;99.90;;;;;;5015132;28;20162;-84
2021/04/03 09:42:29;;;;;;;22.83;4.15;;;10.90;99.90;;;;;;5017642;28;20050;-84
2021/04/03 09:44:57;;;;;;;19.55;3.42;;;11.10;99.90;;;;;;5025447;28;20060;-84
2021/04/03 09:47:25;;;;;;;21.08;4.32;;;11.20;99.90;;;;;;5019788;28;21141;-82
2021/04/03 09:49:51;;;;;;;21.35;3.80;;;11.20;99.90;;;;;;5019264;28;20069;-81
2021/04/03 09:52:19;;;;;;;21.65;4.55;;;11.30;99.00;;;;;;5016051;28;20068;-81
2021/04/03 09:54:47;;;;;;;21.25;4.32;;;11.30;98.30;;;;;;5016163;28;20065;-82
2021/04/03 09:57:14;;;;;;;15.27;2.72;;;11.50;98.90;;;;;;5018929;28;20151;-81
2021/04/03 09:59:42;;;;;;;24.27;4.70;;;11.80;97.50;;;;;;5019548;28;20089;-81
2021/04/03 10:02:09;;;;;;;26.63;4.05;;;12.10;96.20;;;;;;5020532;28;20413;-83
2021/04/03 10:04:36;;;;;;;23.02;3.85;;;12.50;95.80;;;;;;5013488;28;20618;-83
2021/04/03 10:07:02;;;;;;;17.30;3.65;;;12.70;93.20;;;;;;5022177;28;20041;-82
2021/04/03 10:09:29;;;;;;;14.43;2.95;;;13.00;91.90;;;;;;5008952;28;20180;-81
2021/04/03 10:11:55;;;;;;;14.95;2.55;;;13.30;91.10;;;;;;5016820;28;20144;-81
2021/04/03 10:14:22;;;;;;;23.40;2.90;;;13.50;87.30;;;;;;5016992;28;20124;-81
2021/04/03 10:16:49;;;;;;;27.13;5.03;;;13.60;86.60;;;;;;5019245;28;20077;-81
2021/04/03 10:19:16;;;;;;;22.75;4.53;;;13.70;88.70;;;;;;5011561;28;20054;-81
2021/04/03 10:21:42;;;;;;;20.75;3.10;;;13.70;83.20;;;;;;5016600;28;20037;-82
2021/04/03 10:24:10;;;;;;;21.95;3.80;;;13.60;85.30;;;;;;5024302;28;20064;-82
2021/04/03 10:26:36;;;;;;;24.58;4.03;;;13.50;84.60;;;;;;5018651;28;20114;-82
2021/04/03 10:29:03;;;;;;;20.17;3.35;;;13.40;84.90;;;;;;5024061;28;20127;-83
2021/04/03 10:31:30;;;;;;;22.52;4.55;;;13.40;84.70;;;;;;5022049;28;20164;-84
2021/04/03 10:33:56;;;;;;;18.70;3.55;;;13.50;86.50;;;;;;5016703;28;20445;-84
2021/04/03 10:36:23;;;;;;;27.25;3.70;;;13.60;84.30;;;;;;5024468;28;20145;-82
2021/04/03 10:38:50;;;;;;;21.70;3.50;;;13.70;89.10;;;;;;5019529;28;20049;-82
2021/04/03 10:41:16;;;;;;;26.48;4.43;;;14.10;87.10;;;;;;5018759;28;20049;-82
2021/04/03 10:43:45;;;;;;;25.00;4.18;;;14.20;84.40;;;;;;5015433;28;20107;-79
2021/04/03 10:46:11;;;;;;;16.27;3.20;;;14.20;81.20;;;;;;5017725;28;20049;-80
2021/04/03 10:48:38;;;;;;;21.45;3.95;;;14.00;81.30;;;;;;5016431;28;20132;-82
2021/04/03 10:51:05;;;;;;;13.85;3.40;;;13.90;82.00;;;;;;5018797;28;20054;-81
2021/04/03 10:53:32;;;;;;;20.92;4.22;;;14.10;81.60;;;;;;5020150;28;20500;-81
2021/04/03 10:55:58;;;;;;;25.70;3.40;;;14.20;79.40;;;;;;5016749;28;20082;-80
2021/04/03 10:58:25;;;;;;;22.80;3.28;;;14.20;78.70;;;;;;5016392;28;20045;-83
2021/04/03 11:00:51;;;;;;;17.40;2.70;;;14.00;76.90;;;;;;5018350;28;20906;-82
2021/04/03 11:03:18;;;;;;;14.32;2.58;;;13.80;76.20;;;;;;5020128;28;20332;-81
2021/04/03 11:05:44;;;;;;;19.00;2.85;;;13.60;80.00;;;;;;5021344;28;20153;-82
2021/04/03 11:08:10;;;;;;;24.42;3.72;;;13.80;78.90;;;;;;5013751;28;20165;-79
2021/04/03 11:10:37;;;;;;;24.27;3.58;;;13.90;80.30;;;;;;5015329;28;20049;-79
2021/04/03 11:13:04;;;;;;;11.32;2.97;;;14.00;78.60;;;;;;5019197;28;20049;-79
2021/04/03 11:15:30;;;;;;;13.57;2.67;;;14.00;76.30;;;;;;5011041;28;20152;-80
2021/04/03 11:17:57;;;;;;;19.15;3.47;;;13.80;74.90;;;;;;5019514;28;20479;-81
2021/04/03 11:20:24;;;;;;;20.33;3.60;;;13.80;75.60;;;;;;4995036;28;20109;-81
2021/04/03 11:22:54;;;;;;;15.00;3.08;;;13.90;76.10;;;;;;5018506;28;20049;-83
2021/04/03 11:25:20;;;;;;;25.50;3.75;;;14.00;76.90;;;;;;5021248;28;20053;-83
2021/04/03 11:27:47;;;;;;;20.20;3.90;;;14.10;76.60;;;;;;5020036;28;20129;-83
2021/04/03 11:30:13;;;;;;;28.90;4.18;;;14.20;74.40;;;;;;5020370;28;20065;-81
2021/04/03 11:32:44;;;;;;;20.25;3.05;;;14.10;76.60;;;;;;5019710;28;20057;-81
2021/04/03 11:35:14;;;;;;;16.10;2.83;;;14.10;74.80;;;;;;5018963;28;20050;-82
2021/04/03 11:37:42;;;;;;;20.30;4.38;;;14.00;73.80;;;;;;5020496;28;20053;-81
2021/04/03 11:40:10;;;;;;;19.60;3.25;;;14.00;75.60;;;;;;5016566;28;20087;-80
2021/04/03 11:42:37;;;;;;;15.98;3.85;;;14.10;78.30;;;;;;5037157;28;20128;-81
2021/04/03 11:45:07;;;;;;;14.40;2.78;;;14.20;76.60;;;;;;5023892;28;20133;-82
2021/04/03 11:47:37;;;;;;;15.27;3.28;;;14.50;73.70;;;;;;4997638;28;20164;-80
2021/04/03 11:50:05;;;;;;;19.52;3.80;;;14.50;75.60;;;;;;5015270;28;20160;-81
2021/04/03 11:52:33;;;;;;;21.33;4.25;;;14.80;74.20;;;;;;5027912;28;20489;-82
2021/04/03 11:54:59;;;;;;;19.92;3.60;;;15.00;75.20;;;;;;5016783;28;20053;-82
2021/04/03 11:57:28;;;;;;;15.65;3.78;;;15.00;73.80;;;;;;5020505;28;20060;-81
2021/04/03 11:59:55;;;;;;;15.52;3.50;;;15.00;73.20;;;;;;4998948;28;20114;-83
2021/04/03 12:02:21;;;;;;;22.05;4.00;;;15.20;72.60;;;;;;5022362;28;20149;-80
2021/04/03 12:04:47;;;;;;;19.00;3.50;;;15.30;72.40;;;;;;5021300;28;20049;-81
2021/04/03 12:07:14;;;;;;;19.52;3.03;;;15.40;72.40;;;;;;5042674;28;20055;-81
2021/04/03 12:09:40;;;;;;;15.63;3.17;;;15.40;70.10;;;;;;5037638;28;20061;-81
2021/04/03 12:12:07;;;;;;;22.30;4.50;;;15.30;70.00;;;;;;5020131;28;20077;-80
2021/04/03 12:14:34;;;;;;;19.23;3.15;;;15.20;71.60;;;;;;5022004;28;20059;-80
2021/04/03 12:17:01;;;;;;;16.83;2.90;;;15.40;72.30;;;;;;5015814;28;20059;-81
2021/04/03 12:19:28;;;;;;;15.95;2.97;;;15.70;68.60;;;;;;5009356;28;20332;-82
2021/04/03 12:21:54;;;;;;;17.45;3.88;;;15.60;68.90;;;;;;5039182;28;20052;-82
2021/04/03 12:24:20;;;;;;;16.75;3.67;;;15.60;69.60;;;;;;5024602;28;20414;-81
2021/04/03 12:26:47;;;;;;;14.48;3.78;;;15.80;67.50;;;;;;5024138;28;20063;-81
2021/04/03 12:29:13;;;;;;;19.40;4.20;;;15.80;67.90;;;;;;5025191;28;20520;-83
2021/04/03 12:31:39;;;;;;;21.75;4.32;;;15.80;69.20;;;;;;5025099;28;20063;-82
2021/04/03 12:34:05;;;;;;;17.98;4.28;;;16.30;69.20;;;;;;5022542;28;20048;-81
2021/04/03 12:36:32;;;;;;;16.95;3.25;;;17.20;66.30;;;;;;5024831;28;20051;-81
2021/04/03 12:38:58;;;;;;;20.00;3.08;;;17.70;62.00;;;;;;5039706;28;20072;-82
2021/04/03 12:41:24;;;;;;;15.43;3.33;;;17.60;61.80;;;;;;5045834;28;20522;-81
2021/04/03 12:43:50;;;;;;;21.38;3.80;;;17.40;62.00;;;;;;5025972;28;20067;-83
2021/04/03 12:46:17;;;;;;;14.88;2.97;;;17.50;62.70;;;;;;5032785;28;20061;-82
2021/04/03 12:48:43;;;;;;;20.60;3.00;;;17.80;61.30;;;;;;5025328;28;20554;-82
2021/04/03 12:51:10;;;;;;;19.65;3.05;;;17.80;60.90;;;;;;5038622;28;20153;-82
2021/04/03 12:53:37;;;;;;;20.83;3.30;;;17.70;60.10;;;;;;5024566;28;20105;-82
2021/04/03 12:56:04;;;;;;;20.92;3.40;;;17.50;60.00;;;;;;5027945;28;20060;-82